Austell, Georgia
Current Conditions -  °F | °C
As of 6:53 PM on Saturday 25 Oct 2014 (Local Time) from KFTY Reporting Station
Clear Clear  
Wind Chill: 68°   Ceiling: Unl
Heat Index: 68°   Visibility: 10mi
Dew Point: 48°   Wind: 5mph
Humidity: 49%   Direction: 310°NW
Pressure: 30.02"   Gusts: NA
Location:  33.82°N, 84.64°W
Report Text: KFTY 252253Z 31004KT 10SM CLR 20/09 A3002 RMK AO2 SLP163 T02000089
Loading
Personal Weather Stations






























Interactive Weather Map
Tropical Storm Tracking
New forecast layout! Learn more

10-Day Weather Forecast

Advertisements
Track Severe Weather on mobile